createdAt,value
2017-09-06T00:00:08.655Z,2.10
2017-09-06T00:02:35.971Z,1.63
2017-09-06T00:05:03.232Z,2.10
2017-09-06T00:07:30.499Z,1.90
2017-09-06T00:09:57.804Z,1.90
2017-09-06T00:12:25.059Z,2.40
2017-09-06T00:14:52.327Z,1.90
2017-09-06T00:17:19.619Z,2.10
2017-09-06T00:19:46.922Z,1.93
2017-09-06T00:22:14.219Z,1.80
2017-09-06T00:24:41.488Z,2.37
2017-09-06T00:27:08.747Z,2.10
2017-09-06T00:29:36.224Z,1.60
2017-09-06T00:32:03.519Z,1.63
2017-09-06T00:34:30.815Z,1.67
2017-09-06T00:36:58.087Z,1.87
2017-09-06T00:39:25.379Z,1.90
2017-09-06T00:41:52.638Z,1.70
2017-09-06T00:44:19.943Z,1.97
2017-09-06T00:46:47.202Z,1.73
2017-09-06T00:49:14.500Z,2.07
2017-09-06T00:51:41.784Z,1.80
2017-09-06T00:54:09.024Z,1.93
2017-09-06T00:56:36.327Z,1.80
2017-09-06T00:59:03.631Z,2.03
2017-09-06T01:01:30.888Z,2.00
2017-09-06T01:03:58.195Z,1.70
2017-09-06T01:06:25.463Z,1.87
2017-09-06T01:08:52.783Z,1.80
2017-09-06T01:11:20.080Z,1.90
2017-09-06T01:13:47.368Z,1.70
2017-09-06T01:16:14.635Z,1.63
2017-09-06T01:18:41.918Z,1.80
2017-09-06T01:21:09.195Z,1.87
2017-09-06T01:23:36.493Z,1.77
2017-09-06T01:26:03.789Z,1.50
2017-09-06T01:28:31.235Z,1.63
2017-09-06T01:30:58.500Z,1.70
2017-09-06T01:33:25.759Z,1.70
2017-09-06T01:35:53.052Z,1.87
2017-09-06T01:38:20.313Z,1.87
2017-09-06T01:40:47.600Z,1.70
2017-09-06T01:43:14.891Z,1.90
2017-09-06T01:45:42.180Z,1.50
2017-09-06T01:48:09.442Z,1.80
2017-09-06T01:50:36.743Z,1.60
2017-09-06T01:53:04.392Z,1.60
2017-09-06T01:55:31.730Z,1.40
2017-09-06T01:57:59.014Z,1.60
2017-09-06T02:00:26.302Z,1.57
2017-09-06T02:02:53.611Z,2.00
2017-09-06T02:05:20.885Z,1.70
2017-09-06T02:07:48.144Z,1.50
2017-09-06T02:10:15.427Z,1.50
2017-09-06T02:12:42.710Z,1.60
2017-09-06T02:15:10.007Z,1.50
2017-09-06T02:17:37.264Z,1.47
2017-09-06T02:20:04.530Z,1.40
2017-09-06T02:22:31.818Z,1.40
2017-09-06T02:24:59.175Z,1.70
2017-09-06T02:27:26.436Z,1.80
2017-09-06T02:29:53.703Z,1.50
2017-09-06T02:32:21.008Z,1.73
2017-09-06T02:34:48.271Z,1.70
2017-09-06T02:37:15.589Z,1.60
2017-09-06T02:39:42.876Z,1.63
2017-09-06T02:42:10.111Z,1.70
2017-09-06T02:44:37.411Z,1.80
2017-09-06T02:47:04.715Z,1.70
2017-09-06T02:49:31.994Z,1.57
2017-09-06T02:51:59.246Z,1.47
2017-09-06T02:54:26.564Z,1.60
2017-09-06T02:56:53.819Z,1.70
2017-09-06T02:59:21.096Z,1.67
2017-09-06T03:01:48.388Z,1.70
2017-09-06T03:04:15.692Z,1.80
2017-09-06T03:06:42.959Z,1.63
2017-09-06T03:09:10.243Z,1.50
2017-09-06T03:11:37.535Z,1.50
2017-09-06T03:14:04.813Z,1.70
2017-09-06T03:16:32.129Z,1.60
2017-09-06T03:18:59.376Z,1.30
2017-09-06T03:21:26.638Z,1.20
2017-09-06T03:23:53.940Z,1.40
2017-09-06T03:26:21.213Z,1.77
2017-09-06T03:28:49.162Z,1.73
2017-09-06T03:31:16.448Z,1.30
2017-09-06T03:33:43.707Z,1.50
2017-09-06T03:36:10.995Z,1.83
2017-09-06T03:38:38.333Z,1.40
2017-09-06T03:41:05.598Z,1.50
2017-09-06T03:43:32.867Z,1.60
2017-09-06T03:46:00.175Z,1.87
2017-09-06T03:48:27.430Z,1.77
2017-09-06T03:50:55.057Z,1.47
2017-09-06T03:53:22.403Z,1.73
2017-09-06T03:55:49.700Z,1.87
2017-09-06T03:58:17.023Z,1.60
2017-09-06T04:00:44.291Z,1.63
2017-09-06T04:03:11.557Z,1.97
2017-09-06T04:05:38.843Z,1.47
2017-09-06T04:08:06.139Z,1.70
2017-09-06T04:10:33.438Z,1.87
2017-09-06T04:13:00.862Z,1.60
2017-09-06T04:15:28.116Z,1.60
2017-09-06T04:17:55.414Z,1.70
2017-09-06T04:20:22.757Z,1.97
2017-09-06T04:22:50.046Z,1.80
2017-09-06T04:25:17.356Z,1.50
2017-09-06T04:27:44.629Z,1.80
2017-09-06T04:30:11.920Z,1.77
2017-09-06T04:32:39.213Z,2.00
2017-09-06T04:35:06.514Z,2.00
2017-09-06T04:37:33.793Z,1.70
2017-09-06T04:40:01.062Z,2.07
2017-09-06T04:42:28.359Z,1.90
2017-09-06T04:44:55.633Z,1.60
2017-09-06T04:47:22.915Z,1.47
2017-09-06T04:49:50.181Z,2.00
2017-09-06T04:52:17.479Z,1.73
2017-09-06T04:54:44.741Z,2.20
2017-09-06T04:57:12.054Z,1.90
2017-09-06T04:59:39.311Z,1.60
2017-09-06T05:02:06.589Z,1.90
2017-09-06T05:04:33.884Z,2.20
2017-09-06T05:07:01.173Z,1.97
2017-09-06T05:09:28.484Z,2.33
2017-09-06T05:11:55.740Z,1.80
2017-09-06T05:14:23.009Z,2.03
2017-09-06T05:16:50.341Z,2.20
2017-09-06T05:19:17.607Z,2.00
2017-09-06T05:21:44.881Z,2.27
2017-09-06T05:24:12.196Z,2.10
2017-09-06T05:26:39.457Z,2.43
2017-09-06T05:29:06.745Z,2.00
2017-09-06T05:31:34.027Z,1.60
2017-09-06T05:34:01.324Z,2.13
2017-09-06T05:36:28.607Z,1.90
2017-09-06T05:38:55.922Z,2.13
2017-09-06T05:41:23.199Z,2.00
2017-09-06T05:43:50.448Z,2.33
2017-09-06T05:46:17.756Z,2.13
2017-09-06T05:48:45.023Z,2.20
2017-09-06T05:51:12.292Z,2.20
2017-09-06T05:53:39.599Z,2.60
2017-09-06T05:56:06.852Z,1.90
2017-09-06T05:58:34.321Z,2.30
2017-09-06T06:01:01.582Z,2.10
2017-09-06T06:03:28.867Z,1.80
2017-09-06T06:05:56.150Z,2.17
2017-09-06T06:08:23.416Z,2.07
2017-09-06T06:10:50.714Z,1.87
2017-09-06T06:13:18.060Z,2.10
2017-09-06T06:15:45.332Z,1.93
2017-09-06T06:18:12.606Z,1.80
2017-09-06T06:20:39.918Z,1.93
2017-09-06T06:23:07.211Z,1.57
2017-09-06T06:25:34.485Z,1.33
2017-09-06T06:28:01.773Z,1.53
2017-09-06T06:30:29.039Z,1.30
2017-09-06T06:32:56.336Z,1.60
2017-09-06T06:35:23.603Z,1.47
2017-09-06T06:37:50.895Z,1.63
2017-09-06T06:40:18.188Z,1.60
2017-09-06T06:42:45.475Z,1.67
2017-09-06T06:45:13.045Z,1.80
2017-09-06T06:47:40.335Z,1.20
2017-09-06T06:50:07.591Z,1.47
2017-09-06T06:52:34.878Z,1.50
2017-09-06T06:55:02.150Z,1.63
2017-09-06T06:57:29.444Z,1.20
2017-09-06T06:59:56.714Z,1.43
2017-09-06T07:02:23.979Z,1.50
2017-09-06T07:04:51.274Z,1.70
2017-09-06T07:07:18.611Z,1.40
2017-09-06T07:09:45.903Z,1.20
2017-09-06T07:12:13.167Z,1.20
2017-09-06T07:14:40.473Z,1.33
2017-09-06T07:17:07.751Z,1.10
2017-09-06T07:19:35.021Z,1.33
2017-09-06T07:22:02.347Z,1.73
2017-09-06T07:24:29.943Z,1.60
2017-09-06T07:26:57.239Z,1.43
2017-09-06T07:29:24.543Z,1.33
2017-09-06T07:31:51.960Z,1.80
2017-09-06T07:34:19.324Z,1.77
2017-09-06T07:36:46.596Z,1.43
2017-09-06T07:39:13.899Z,1.30
2017-09-06T07:41:41.160Z,1.47
2017-09-06T07:44:08.420Z,1.70
2017-09-06T07:46:35.732Z,1.40
2017-09-06T07:49:02.993Z,1.40
2017-09-06T07:51:30.259Z,1.20
2017-09-06T07:53:57.533Z,1.10
2017-09-06T07:56:24.821Z,1.90
2017-09-06T07:58:52.080Z,1.60
2017-09-06T08:01:19.367Z,1.70
2017-09-06T08:03:46.664Z,1.67
2017-09-06T08:06:13.923Z,1.70
2017-09-06T08:08:41.198Z,1.50
2017-09-06T08:11:08.493Z,1.37
2017-09-06T08:13:35.789Z,1.77
2017-09-06T08:16:03.051Z,1.60
2017-09-06T08:18:30.346Z,1.40
2017-09-06T08:20:57.645Z,1.70
2017-09-06T08:23:24.944Z,1.40
2017-09-06T08:25:52.219Z,1.80
2017-09-06T08:28:19.480Z,1.60
2017-09-06T08:30:46.900Z,1.60
2017-09-06T08:33:14.167Z,1.40
2017-09-06T08:35:41.430Z,1.57
2017-09-06T08:38:08.738Z,1.33
2017-09-06T08:40:36.052Z,1.70
2017-09-06T08:43:03.315Z,1.50
2017-09-06T08:45:30.583Z,1.90
2017-09-06T08:47:57.882Z,1.80
2017-09-06T08:50:25.147Z,1.53
2017-09-06T08:52:52.429Z,1.30
2017-09-06T08:55:19.719Z,1.40
2017-09-06T08:57:46.996Z,1.30
2017-09-06T09:00:14.772Z,1.20
2017-09-06T09:02:42.196Z,1.20
2017-09-06T09:05:09.473Z,1.37
2017-09-06T09:07:37.184Z,1.60
2017-09-06T09:10:04.709Z,2.00
2017-09-06T09:12:31.970Z,1.80
2017-09-06T09:14:59.268Z,1.03
2017-09-06T09:17:26.574Z,1.37
2017-09-06T09:19:53.839Z,1.50
2017-09-06T09:22:21.145Z,1.57
2017-09-06T09:24:48.429Z,1.33
2017-09-06T09:27:15.678Z,1.60
2017-09-06T09:29:42.958Z,1.20
2017-09-06T09:32:10.224Z,1.30
2017-09-06T09:34:37.544Z,1.50
2017-09-06T09:37:04.811Z,1.30
2017-09-06T09:39:32.091Z,1.40
2017-09-06T09:41:59.387Z,1.50
2017-09-06T09:44:26.687Z,1.80
2017-09-06T09:46:53.958Z,1.93
2017-09-06T09:49:21.226Z,1.63
2017-09-06T09:51:48.515Z,2.27
2017-09-06T09:54:15.779Z,2.10
2017-09-06T09:56:43.076Z,2.20
2017-09-06T09:59:10.343Z,1.80
2017-09-06T10:01:37.646Z,2.20
2017-09-06T10:04:04.903Z,2.53
2017-09-06T10:06:32.172Z,2.80
2017-09-06T10:08:59.468Z,3.23
2017-09-06T10:11:26.735Z,2.90
2017-09-06T10:13:54.027Z,3.20
2017-09-06T10:16:21.283Z,3.43
2017-09-06T10:18:48.579Z,3.80
2017-09-06T10:21:15.851Z,3.10
2017-09-06T10:23:43.124Z,2.70
2017-09-06T10:26:10.415Z,2.83
2017-09-06T10:28:37.675Z,2.40
2017-09-06T10:31:04.944Z,3.03
2017-09-06T10:33:32.241Z,3.33
2017-09-06T10:35:59.518Z,3.10
2017-09-06T10:38:26.803Z,2.33
2017-09-06T10:40:54.111Z,2.60
2017-09-06T10:43:21.375Z,2.90
2017-09-06T10:45:48.636Z,3.37
2017-09-06T10:48:15.927Z,3.37
2017-09-06T10:50:43.224Z,3.57
2017-09-06T10:53:10.489Z,2.23
2017-09-06T10:55:37.813Z,3.10
2017-09-06T10:58:05.117Z,2.83
2017-09-06T11:00:32.363Z,2.60
2017-09-06T11:02:59.660Z,2.67
2017-09-06T11:05:26.967Z,2.40
2017-09-06T11:07:54.232Z,2.63
2017-09-06T11:10:21.496Z,2.77
2017-09-06T11:12:48.795Z,2.50
2017-09-06T11:15:16.075Z,2.40
2017-09-06T11:17:43.338Z,2.70
2017-09-06T11:20:10.623Z,2.50
2017-09-06T11:22:37.967Z,2.77
2017-09-06T11:25:05.253Z,2.50
2017-09-06T11:27:32.503Z,2.70
2017-09-06T11:29:59.802Z,3.10
2017-09-06T11:32:27.158Z,2.40
2017-09-06T11:34:54.469Z,2.90
2017-09-06T11:37:21.740Z,2.50
2017-09-06T11:39:49.031Z,3.00
2017-09-06T11:42:16.317Z,2.80
2017-09-06T11:44:43.607Z,2.63
2017-09-06T11:47:10.872Z,2.90
2017-09-06T11:49:38.167Z,3.07
2017-09-06T11:52:05.544Z,2.97
2017-09-06T11:54:32.802Z,2.90
2017-09-06T11:57:00.099Z,3.10
2017-09-06T11:59:27.373Z,2.97
2017-09-06T12:01:54.640Z,3.10
2017-09-06T12:04:21.941Z,2.60
2017-09-06T12:06:49.204Z,2.87
2017-09-06T12:09:16.456Z,2.77
2017-09-06T12:11:43.759Z,2.80
2017-09-06T12:14:11.013Z,3.03
2017-09-06T12:16:38.300Z,2.87
2017-09-06T12:19:05.566Z,2.70
2017-09-06T12:21:32.864Z,2.60
2017-09-06T12:24:00.287Z,2.80
2017-09-06T12:26:27.546Z,3.17
2017-09-06T12:28:54.853Z,3.60
2017-09-06T12:31:22.127Z,2.47
2017-09-06T12:33:49.391Z,2.60
2017-09-06T12:36:16.690Z,2.60
2017-09-06T12:38:43.991Z,2.70
2017-09-06T12:41:11.271Z,2.60
2017-09-06T12:43:38.567Z,3.13
2017-09-06T12:46:05.830Z,2.63
2017-09-06T12:48:33.118Z,2.73
2017-09-06T12:51:00.421Z,3.10
2017-09-06T12:53:27.670Z,3.00
2017-09-06T12:55:54.983Z,2.87
2017-09-06T12:58:22.248Z,3.27
2017-09-06T13:00:49.521Z,2.33
2017-09-06T13:03:16.809Z,2.80
2017-09-06T13:05:44.059Z,3.00
2017-09-06T13:08:11.372Z,3.07
2017-09-06T13:10:38.627Z,2.47
2017-09-06T13:13:05.901Z,3.13
2017-09-06T13:15:33.191Z,3.00
2017-09-06T13:18:00.455Z,3.70
2017-09-06T13:20:27.772Z,2.80
2017-09-06T13:22:55.067Z,2.60
2017-09-06T13:25:22.589Z,3.00
2017-09-06T13:27:49.879Z,2.23
2017-09-06T13:30:17.147Z,3.27
2017-09-06T13:32:44.434Z,2.50
2017-09-06T13:35:11.703Z,3.10
2017-09-06T13:37:38.995Z,2.60
2017-09-06T13:40:06.268Z,2.50
2017-09-06T13:42:33.556Z,2.10
2017-09-06T13:45:00.815Z,2.80
2017-09-06T13:47:28.123Z,3.10
2017-09-06T13:49:55.411Z,2.47
2017-09-06T13:52:22.675Z,2.70
2017-09-06T13:54:49.952Z,2.60
2017-09-06T13:57:17.221Z,2.30
2017-09-06T13:59:44.539Z,2.67
2017-09-06T14:02:11.799Z,2.33
2017-09-06T14:04:39.069Z,2.70
2017-09-06T14:07:06.368Z,1.70
2017-09-06T14:09:33.633Z,2.63
2017-09-06T14:12:00.908Z,2.30
2017-09-06T14:14:28.199Z,2.60
2017-09-06T14:16:55.500Z,2.20
2017-09-06T14:19:22.786Z,2.03
2017-09-06T14:21:50.081Z,1.87
2017-09-06T14:24:17.354Z,2.30
2017-09-06T14:26:44.643Z,2.07
2017-09-06T14:29:11.902Z,2.13
2017-09-06T14:31:39.211Z,2.27
2017-09-06T14:34:06.480Z,2.23
2017-09-06T14:36:33.749Z,2.63
2017-09-06T14:39:01.046Z,1.93
2017-09-06T14:41:28.300Z,1.90
2017-09-06T14:43:55.641Z,2.90
2017-09-06T14:46:22.921Z,2.33
2017-09-06T14:48:50.178Z,2.10
2017-09-06T14:51:17.521Z,2.40
2017-09-06T14:53:44.777Z,1.97
2017-09-06T14:56:12.037Z,2.40
2017-09-06T14:58:39.347Z,2.07
2017-09-06T15:01:06.610Z,2.57
2017-09-06T15:03:33.872Z,2.10
2017-09-06T15:06:01.180Z,2.23
2017-09-06T15:08:28.455Z,1.83
2017-09-06T15:10:55.755Z,2.40
2017-09-06T15:13:23.067Z,2.20
2017-09-06T15:15:50.464Z,2.60
2017-09-06T15:18:17.773Z,2.00
2017-09-06T15:20:45.041Z,2.40
2017-09-06T15:23:12.405Z,2.40
2017-09-06T15:25:39.659Z,3.27
2017-09-06T15:28:06.926Z,2.53
2017-09-06T15:30:34.248Z,2.47
2017-09-06T15:33:01.513Z,2.43
2017-09-06T15:35:28.781Z,2.10
2017-09-06T15:37:56.071Z,2.20
2017-09-06T15:40:23.340Z,2.30
2017-09-06T15:42:50.663Z,2.53
2017-09-06T15:45:17.926Z,2.73
2017-09-06T15:47:45.192Z,2.30
2017-09-06T15:50:12.485Z,2.00
2017-09-06T15:52:39.748Z,2.40
2017-09-06T15:55:07.043Z,2.53
2017-09-06T15:57:34.316Z,2.33
2017-09-06T16:00:01.715Z,2.30
2017-09-06T16:02:28.989Z,2.40
2017-09-06T16:04:56.242Z,2.33
2017-09-06T16:07:23.553Z,2.63
2017-09-06T16:09:50.847Z,2.37
2017-09-06T16:12:18.105Z,2.60
2017-09-06T16:14:45.402Z,3.60
2017-09-06T16:17:12.671Z,2.40
2017-09-06T16:19:39.973Z,3.00
2017-09-06T16:22:07.236Z,2.43
2017-09-06T16:24:34.531Z,2.30
2017-09-06T16:27:01.807Z,2.53
2017-09-06T16:29:29.096Z,3.00
2017-09-06T16:31:56.427Z,2.77
2017-09-06T16:34:23.691Z,2.60
2017-09-06T16:36:50.968Z,2.70
2017-09-06T16:39:18.261Z,2.63
2017-09-06T16:41:45.530Z,2.47
2017-09-06T16:44:12.822Z,3.13
2017-09-06T16:46:40.082Z,2.60
2017-09-06T16:49:07.388Z,3.30
2017-09-06T16:51:34.736Z,3.07
2017-09-06T16:54:02.023Z,2.63
2017-09-06T16:56:29.339Z,2.90
2017-09-06T16:58:56.616Z,3.10
2017-09-06T17:01:23.890Z,2.50
2017-09-06T17:03:51.180Z,2.80
2017-09-06T17:06:18.443Z,2.90
2017-09-06T17:08:45.745Z,3.07
2017-09-06T17:11:13.003Z,2.67
2017-09-06T17:13:40.268Z,2.57
2017-09-06T17:16:07.574Z,2.30
2017-09-06T17:18:34.936Z,2.57
2017-09-06T17:21:02.240Z,2.60
2017-09-06T17:23:29.512Z,2.93
2017-09-06T17:25:56.786Z,2.57
2017-09-06T17:28:24.077Z,3.60
2017-09-06T17:30:51.338Z,2.80
2017-09-06T17:33:18.643Z,2.63
2017-09-06T17:35:45.907Z,2.80
2017-09-06T17:38:13.213Z,2.67
2017-09-06T17:40:40.466Z,3.03
2017-09-06T17:43:07.776Z,3.17
2017-09-06T17:45:35.051Z,3.17
2017-09-06T17:48:02.371Z,3.20
2017-09-06T17:50:29.638Z,3.23
2017-09-06T17:52:56.915Z,3.10
2017-09-06T17:55:24.211Z,2.63
2017-09-06T17:57:51.480Z,3.00
2017-09-06T18:00:18.781Z,3.20
2017-09-06T18:02:46.040Z,2.67
2017-09-06T18:05:13.347Z,3.33
2017-09-06T18:07:42.835Z,2.70
2017-09-06T18:10:10.379Z,2.90
2017-09-06T18:12:38.539Z,3.07
2017-09-06T18:15:05.847Z,3.40
2017-09-06T18:17:33.135Z,2.77
2017-09-06T18:20:00.403Z,3.07
2017-09-06T18:22:27.699Z,3.37
2017-09-06T18:24:54.967Z,2.60
2017-09-06T18:27:22.560Z,3.10
2017-09-06T18:29:49.815Z,3.17
2017-09-06T18:32:17.088Z,2.90
2017-09-06T18:34:44.382Z,2.77
2017-09-06T18:37:11.696Z,2.70
2017-09-06T18:39:38.964Z,3.30
2017-09-06T18:42:06.239Z,2.57
2017-09-06T18:44:33.569Z,2.33
2017-09-06T18:47:00.918Z,2.90
2017-09-06T18:49:28.174Z,3.60
2017-09-06T18:51:55.466Z,3.40
2017-09-06T18:54:22.768Z,3.30
2017-09-06T18:56:50.052Z,3.07
2017-09-06T18:59:17.319Z,2.90
2017-09-06T19:01:44.638Z,3.07
2017-09-06T19:04:11.903Z,2.90
2017-09-06T19:06:39.167Z,3.23
2017-09-06T19:09:06.483Z,3.83
2017-09-06T19:11:33.772Z,3.10
2017-09-06T19:14:01.032Z,3.37
2017-09-06T19:16:28.318Z,3.10
2017-09-06T19:18:55.583Z,3.70
2017-09-06T19:21:22.884Z,3.83
2017-09-06T19:23:50.151Z,3.80
2017-09-06T19:26:17.431Z,2.87
2017-09-06T19:28:44.733Z,2.83
2017-09-06T19:31:11.992Z,3.93
2017-09-06T19:33:39.762Z,3.53
2017-09-06T19:36:07.023Z,3.57
2017-09-06T19:38:34.362Z,3.30
2017-09-06T19:41:01.620Z,3.67
2017-09-06T19:43:28.927Z,3.63
2017-09-06T19:45:56.187Z,3.67
2017-09-06T19:48:23.451Z,3.50
2017-09-06T19:50:50.742Z,3.47
2017-09-06T19:53:18.058Z,3.80
2017-09-06T19:55:45.323Z,4.00
2017-09-06T19:58:12.611Z,4.07
2017-09-06T20:00:39.883Z,3.67
2017-09-06T20:03:07.215Z,3.60
2017-09-06T20:05:34.492Z,4.10
2017-09-06T20:08:01.755Z,4.07
2017-09-06T20:10:29.046Z,3.70
2017-09-06T20:12:56.348Z,3.60
2017-09-06T20:15:23.610Z,3.80
2017-09-06T20:17:50.904Z,3.33
2017-09-06T20:20:18.211Z,3.73
2017-09-06T20:22:45.478Z,3.80
2017-09-06T20:25:12.734Z,3.90
2017-09-06T20:27:40.027Z,4.67
2017-09-06T20:30:07.322Z,4.37
2017-09-06T20:32:34.657Z,3.50
2017-09-06T20:35:01.958Z,3.93
2017-09-06T20:37:29.214Z,3.33
2017-09-06T20:39:56.514Z,4.70
2017-09-06T20:42:23.779Z,3.63
2017-09-06T20:44:51.058Z,3.33
2017-09-06T20:47:18.351Z,3.60
2017-09-06T20:49:45.611Z,5.87
2017-09-06T20:52:12.879Z,4.47
2017-09-06T20:54:40.172Z,4.40
2017-09-06T20:57:07.458Z,3.80
2017-09-06T20:59:34.726Z,4.33
2017-09-06T21:02:01.994Z,4.03
2017-09-06T21:04:29.387Z,3.57
2017-09-06T21:06:56.662Z,4.77
2017-09-06T21:09:23.942Z,3.83
2017-09-06T21:11:51.240Z,6.07
2017-09-06T21:14:18.538Z,4.10
2017-09-06T21:16:45.801Z,4.53
2017-09-06T21:19:13.093Z,4.07
2017-09-06T21:21:40.404Z,5.77
2017-09-06T21:24:07.679Z,4.10
2017-09-06T21:26:34.944Z,4.00
2017-09-06T21:29:02.334Z,4.27
2017-09-06T21:31:29.595Z,4.50
2017-09-06T21:33:56.867Z,3.93
2017-09-06T21:36:24.156Z,3.70
2017-09-06T21:38:51.478Z,3.60
2017-09-06T21:41:18.746Z,4.60
2017-09-06T21:43:46.009Z,5.03
2017-09-06T21:46:13.298Z,5.43
2017-09-06T21:48:40.562Z,3.73
2017-09-06T21:51:07.880Z,4.77
2017-09-06T21:53:35.146Z,4.70
2017-09-06T21:56:02.410Z,4.10
2017-09-06T21:58:29.727Z,5.07
2017-09-06T22:00:56.988Z,4.00
2017-09-06T22:03:24.251Z,3.80
2017-09-06T22:05:51.548Z,4.13
2017-09-06T22:08:18.838Z,4.93
2017-09-06T22:10:46.108Z,4.73
2017-09-06T22:13:13.418Z,3.70
2017-09-06T22:15:40.684Z,5.00
2017-09-06T22:18:07.951Z,3.90
2017-09-06T22:20:35.246Z,4.03
2017-09-06T22:23:02.579Z,5.60
2017-09-06T22:25:29.879Z,5.97
2017-09-06T22:27:57.150Z,4.90
2017-09-06T22:30:24.460Z,4.20
2017-09-06T22:32:51.784Z,5.67
2017-09-06T22:35:19.058Z,4.10
2017-09-06T22:37:46.318Z,4.10
2017-09-06T22:40:13.629Z,4.57
2017-09-06T22:42:40.887Z,4.70
2017-09-06T22:45:08.207Z,4.83
2017-09-06T22:47:35.470Z,4.80
2017-09-06T22:50:02.747Z,4.60
2017-09-06T22:52:30.062Z,5.03
2017-09-06T22:54:57.339Z,4.47
2017-09-06T22:57:24.591Z,4.93
2017-09-06T22:59:51.882Z,5.70
2017-09-06T23:02:19.195Z,4.67
2017-09-06T23:04:46.460Z,4.00
2017-09-06T23:07:13.755Z,4.87
2017-09-06T23:09:41.070Z,5.20
2017-09-06T23:12:08.333Z,5.30
2017-09-06T23:14:35.595Z,4.10
2017-09-06T23:17:02.891Z,5.50
2017-09-06T23:19:30.167Z,4.57
2017-09-06T23:21:57.475Z,5.17
2017-09-06T23:24:24.816Z,4.37
2017-09-06T23:26:52.079Z,5.00
2017-09-06T23:29:19.338Z,4.67
2017-09-06T23:31:46.640Z,5.20
2017-09-06T23:34:13.944Z,5.00
2017-09-06T23:36:41.222Z,5.10
2017-09-06T23:39:08.519Z,5.10
2017-09-06T23:41:35.811Z,4.83
2017-09-06T23:44:03.108Z,4.60
2017-09-06T23:46:30.371Z,4.70
2017-09-06T23:48:57.643Z,4.90
2017-09-06T23:51:24.955Z,4.87
2017-09-06T23:53:52.223Z,5.00
2017-09-06T23:56:19.495Z,5.23
2017-09-06T23:58:46.775Z,5.13
